createdAt,value
2017-01-13T00:02:59.107Z,993.174
2017-01-13T00:05:56.665Z,993.116
2017-01-13T00:09:01.399Z,993.082
2017-01-13T00:12:11.712Z,993.032
2017-01-13T00:18:20.447Z,992.830
2017-01-13T00:21:24.580Z,992.735
2017-01-13T00:24:23.166Z,992.643
2017-01-13T00:27:33.734Z,992.568
2017-01-13T00:30:37.937Z,992.528
2017-01-13T00:33:41.721Z,992.484
2017-01-13T00:36:39.412Z,992.443
2017-01-13T00:39:44.227Z,992.352
2017-01-13T00:42:49.268Z,992.324
2017-01-13T00:46:00.042Z,992.317
2017-01-13T00:48:59.249Z,992.211
2017-01-13T00:52:09.939Z,992.110
2017-01-13T00:55:14.520Z,992.058
2017-01-13T00:58:19.475Z,991.977
2017-01-13T01:01:24.106Z,991.912
2017-01-13T01:04:27.993Z,991.881
2017-01-13T01:07:32.011Z,991.827
2017-01-13T01:10:35.642Z,991.832
2017-01-13T01:13:34.660Z,991.776
2017-01-13T01:16:39.073Z,991.688
2017-01-13T01:22:54.625Z,991.565
2017-01-13T01:25:59.435Z,991.458
2017-01-13T01:28:56.403Z,991.352
2017-01-13T01:32:06.330Z,991.307
2017-01-13T01:35:11.555Z,991.245
2017-01-13T01:41:20.392Z,991.068
2017-01-13T01:44:25.592Z,990.971
2017-01-13T01:47:29.540Z,990.855
2017-01-13T01:50:33.339Z,990.808
2017-01-13T01:53:38.487Z,990.716
2017-01-13T01:56:43.346Z,990.650
2017-01-13T02:02:51.850Z,990.518
2017-01-13T02:05:55.734Z,990.468
2017-01-13T02:08:59.902Z,990.367
2017-01-13T02:12:03.610Z,990.318
2017-01-13T02:15:07.591Z,990.275
2017-01-13T02:18:05.101Z,990.165
2017-01-13T02:21:09.684Z,990.078
2017-01-13T02:24:20.509Z,989.962
2017-01-13T02:27:24.297Z,989.811
2017-01-13T02:30:22.113Z,989.727
2017-01-13T02:33:32.510Z,989.720
2017-01-13T02:36:36.392Z,989.677
2017-01-13T02:39:40.537Z,989.665
2017-01-13T02:42:44.685Z,989.550
2017-01-13T02:45:42.445Z,989.510
2017-01-13T02:48:52.864Z,989.442
2017-01-13T02:51:57.018Z,989.320
2017-01-13T02:54:54.938Z,989.230
2017-01-13T02:57:59.652Z,989.138
2017-01-13T03:01:10.439Z,989.071
2017-01-13T03:04:15.101Z,988.984
2017-01-13T03:10:25.234Z,988.870
2017-01-13T03:13:29.276Z,988.805
2017-01-13T03:16:33.701Z,988.700
2017-01-13T03:19:37.536Z,988.608
2017-01-13T03:22:42.521Z,988.503
2017-01-13T03:25:46.267Z,988.386
2017-01-13T03:28:51.365Z,988.299
2017-01-13T03:31:56.421Z,988.275
2017-01-13T03:41:03.478Z,987.989
2017-01-13T03:44:13.468Z,987.943
2017-01-13T03:50:22.556Z,987.785
2017-01-13T03:53:26.448Z,987.761
2017-01-13T03:56:30.573Z,987.688
2017-01-13T03:59:34.724Z,987.621
2017-01-13T04:02:38.858Z,987.589
2017-01-13T04:05:40.611Z,987.536
2017-01-13T04:11:40.489Z,987.368
2017-01-13T04:14:48.350Z,987.275
2017-01-13T04:17:52.075Z,987.171
2017-01-13T04:20:55.490Z,987.120
2017-01-13T04:23:53.571Z,987.040
2017-01-13T04:26:57.923Z,986.949
2017-01-13T04:30:02.467Z,986.899
2017-01-13T04:36:14.224Z,986.772
2017-01-13T04:42:22.014Z,986.630
2017-01-13T04:45:25.963Z,986.581
2017-01-13T04:48:29.813Z,986.535
2017-01-13T04:51:27.275Z,986.414
2017-01-13T04:57:42.905Z,986.299
2017-01-13T05:00:47.791Z,986.265
2017-01-13T05:03:46.711Z,986.218
2017-01-13T05:06:56.942Z,986.197
2017-01-13T05:09:55.692Z,986.148
2017-01-13T05:13:06.143Z,986.172
2017-01-13T05:19:07.990Z,986.120
2017-01-13T05:22:18.757Z,986.065
2017-01-13T05:25:23.684Z,986.000
2017-01-13T05:28:27.764Z,985.960
2017-01-13T05:31:25.593Z,985.876
2017-01-13T05:34:36.188Z,985.802
2017-01-13T05:37:40.893Z,985.713
2017-01-13T05:43:50.383Z,985.585
2017-01-13T05:46:48.316Z,985.490
2017-01-13T05:49:58.785Z,985.448
2017-01-13T05:56:08.190Z,985.426
2017-01-13T05:59:12.364Z,985.399
2017-01-13T06:02:16.326Z,985.378
2017-01-13T06:05:20.221Z,985.356
2017-01-13T06:08:18.720Z,985.341
2017-01-13T06:11:27.423Z,985.332
2017-01-13T06:17:33.245Z,985.340
2017-01-13T06:20:37.260Z,985.401
2017-01-13T06:23:38.580Z,985.401
2017-01-13T06:26:39.930Z,985.394
2017-01-13T06:29:41.346Z,985.385
2017-01-13T06:32:36.563Z,985.385
2017-01-13T06:38:49.590Z,985.447
2017-01-13T06:41:46.185Z,985.453
2017-01-13T06:44:55.763Z,985.463
2017-01-13T06:50:57.974Z,985.446
2017-01-13T06:54:07.554Z,985.428
2017-01-13T06:57:04.952Z,985.468
2017-01-13T07:00:15.527Z,985.506
2017-01-13T07:03:20.717Z,985.543
2017-01-13T07:09:29.368Z,985.658
2017-01-13T07:12:33.653Z,985.734
2017-01-13T07:15:30.641Z,985.795
2017-01-13T07:18:41.625Z,985.831
2017-01-13T07:21:39.776Z,985.844
2017-01-13T07:24:44.882Z,985.867
2017-01-13T07:27:49.143Z,985.867
2017-01-13T07:30:54.012Z,985.882
2017-01-13T07:33:58.943Z,985.895
2017-01-13T07:37:03.899Z,985.942
2017-01-13T07:40:08.783Z,986.014
2017-01-13T07:43:13.778Z,986.005
2017-01-13T07:46:18.762Z,986.039
2017-01-13T07:49:23.835Z,986.058
2017-01-13T07:55:39.680Z,986.148
2017-01-13T07:58:37.517Z,986.181
2017-01-13T08:01:48.568Z,986.250
2017-01-13T08:07:56.502Z,986.396
2017-01-13T08:11:00.209Z,986.429
2017-01-13T08:13:59.502Z,986.499
2017-01-13T08:17:04.047Z,986.541
2017-01-13T08:20:08.832Z,986.575
2017-01-13T08:23:13.772Z,986.665
2017-01-13T08:26:18.685Z,986.697
2017-01-13T08:29:23.502Z,986.807
2017-01-13T08:32:28.488Z,986.822
2017-01-13T08:35:33.304Z,986.891
2017-01-13T08:38:38.168Z,986.957
2017-01-13T08:41:43.225Z,987.028
2017-01-13T08:44:48.191Z,987.081
2017-01-13T08:50:58.390Z,987.264
2017-01-13T08:57:13.479Z,987.360
2017-01-13T09:00:12.384Z,987.450
2017-01-13T09:03:17.098Z,987.537
2017-01-13T09:06:21.841Z,987.591
2017-01-13T09:09:26.344Z,987.686
2017-01-13T09:12:37.017Z,987.768
2017-01-13T09:15:36.263Z,987.836
2017-01-13T09:18:47.206Z,987.956
2017-01-13T09:21:51.152Z,988.033
2017-01-13T09:27:54.196Z,988.158
2017-01-13T09:37:14.584Z,988.401
2017-01-13T09:40:18.823Z,988.462
2017-01-13T09:43:16.981Z,988.540
2017-01-13T09:46:27.884Z,988.616
2017-01-13T09:49:32.031Z,988.695
2017-01-13T09:52:35.740Z,988.760
2017-01-13T09:58:39.038Z,988.932
2017-01-13T10:01:49.607Z,989.021
2017-01-13T10:04:54.156Z,989.091
2017-01-13T10:07:58.362Z,989.133
2017-01-13T10:10:56.284Z,989.207
2017-01-13T10:17:12.176Z,989.331
2017-01-13T10:20:16.419Z,989.381
2017-01-13T10:23:20.915Z,989.477
2017-01-13T10:26:25.051Z,989.552
2017-01-13T10:29:29.451Z,989.573
2017-01-13T10:35:37.938Z,989.691
2017-01-13T10:38:42.222Z,989.751
2017-01-13T10:41:40.514Z,989.838
2017-01-13T10:44:51.630Z,989.910
2017-01-13T10:47:49.848Z,989.992
2017-01-13T10:53:59.525Z,990.183
2017-01-13T10:57:10.453Z,990.258
2017-01-13T11:00:08.669Z,990.308
2017-01-13T11:03:19.774Z,990.337
2017-01-13T11:06:24.765Z,990.429
2017-01-13T11:09:23.040Z,990.525
2017-01-13T11:15:38.454Z,990.605
2017-01-13T11:18:41.551Z,990.659
2017-01-13T11:24:49.534Z,990.813
2017-01-13T11:27:53.285Z,990.830
2017-01-13T11:30:51.083Z,990.901
2017-01-13T11:33:55.965Z,990.905
2017-01-13T11:37:06.356Z,990.976
2017-01-13T11:40:04.450Z,991.039
2017-01-13T11:43:15.428Z,991.090
2017-01-13T11:46:19.483Z,991.162
2017-01-13T11:49:23.431Z,991.247
2017-01-13T11:52:21.608Z,991.277
2017-01-13T11:55:32.490Z,991.316
2017-01-13T11:58:30.512Z,991.363
2017-01-13T12:01:41.217Z,991.396
2017-01-13T12:04:39.585Z,991.457
2017-01-13T12:07:44.021Z,991.540
2017-01-13T12:10:54.939Z,991.611
2017-01-13T12:14:00.161Z,991.650
2017-01-13T12:16:58.363Z,991.705
2017-01-13T12:20:09.207Z,991.759
2017-01-13T12:23:13.337Z,991.842
2017-01-13T12:26:12.541Z,991.917
2017-01-13T12:29:17.436Z,991.974
2017-01-13T12:32:22.866Z,992.043
2017-01-13T12:35:28.028Z,992.128
2017-01-13T12:38:32.704Z,992.206
2017-01-13T12:41:37.617Z,992.258
2017-01-13T12:44:48.806Z,992.360
2017-01-13T12:47:47.080Z,992.421
2017-01-13T12:50:52.038Z,992.469
2017-01-13T12:54:02.943Z,992.529
2017-01-13T12:57:01.223Z,992.585
2017-01-13T13:03:17.131Z,992.679
2017-01-13T13:06:21.336Z,992.736
2017-01-13T13:09:19.329Z,992.780
2017-01-13T13:12:24.099Z,992.850
2017-01-13T13:15:35.231Z,992.865
2017-01-13T13:18:33.293Z,992.949
2017-01-13T13:21:44.317Z,993.015
2017-01-13T13:24:48.281Z,993.070
2017-01-13T13:27:46.355Z,993.166
2017-01-13T13:30:57.183Z,993.204
2017-01-13T13:34:02.656Z,993.246
2017-01-13T13:37:06.765Z,993.284
2017-01-13T13:40:10.959Z,993.330
2017-01-13T13:43:14.917Z,993.388
2017-01-13T13:46:19.986Z,993.461
2017-01-13T13:49:17.897Z,993.532
2017-01-13T13:52:22.669Z,993.518
2017-01-13T13:58:37.916Z,993.623
2017-01-13T14:01:42.151Z,993.687
2017-01-13T14:04:46.199Z,993.743
2017-01-13T14:07:44.331Z,993.841
2017-01-13T14:10:49.265Z,993.872
2017-01-13T14:13:59.934Z,993.929
2017-01-13T14:17:04.086Z,993.964
2017-01-13T14:19:57.127Z,993.979
2017-01-13T14:23:13.385Z,994.023
2017-01-13T14:26:14.600Z,994.099
2017-01-13T14:29:12.822Z,994.121
2017-01-13T14:32:17.620Z,994.190
2017-01-13T14:35:22.612Z,994.249
2017-01-13T14:38:33.463Z,994.353
2017-01-13T14:41:31.480Z,994.456
2017-01-13T14:44:42.288Z,994.550
2017-01-13T14:50:51.686Z,994.644
2017-01-13T14:56:55.029Z,994.741
2017-01-13T15:00:05.726Z,994.780
2017-01-13T15:03:09.783Z,994.805
2017-01-13T15:06:13.578Z,994.855
2017-01-13T15:09:17.687Z,994.897
2017-01-13T15:12:21.509Z,994.937
2017-01-13T15:15:25.900Z,994.961
2017-01-13T15:18:30.184Z,995.043
2017-01-13T15:21:33.957Z,995.137
2017-01-13T15:24:38.030Z,995.238
2017-01-13T15:27:37.383Z,995.264
2017-01-13T15:30:48.216Z,995.282
2017-01-13T15:33:53.675Z,995.288
2017-01-13T15:36:57.375Z,995.309
2017-01-13T15:40:02.410Z,995.354
2017-01-13T15:43:00.088Z,995.416
2017-01-13T15:46:10.638Z,995.479
2017-01-13T15:49:08.470Z,995.535
2017-01-13T15:52:13.297Z,995.635
2017-01-13T15:55:24.019Z,995.679
2017-01-13T15:58:27.941Z,995.745
2017-01-13T16:01:25.885Z,995.773
2017-01-13T16:07:35.215Z,995.803
2017-01-13T16:10:40.818Z,995.825
2017-01-13T16:13:50.279Z,995.845
2017-01-13T16:16:54.128Z,995.856
2017-01-13T16:19:59.085Z,995.917
2017-01-13T16:23:03.036Z,995.955
2017-01-13T16:26:07.049Z,995.989
2017-01-13T16:29:11.133Z,996.019
2017-01-13T16:32:15.057Z,996.081
2017-01-13T16:35:17.997Z,996.148
2017-01-13T16:38:21.523Z,996.179
2017-01-13T16:41:25.268Z,996.238
2017-01-13T16:47:34.128Z,996.278
2017-01-13T16:50:38.248Z,996.336
2017-01-13T16:53:42.652Z,996.340
2017-01-13T16:56:46.843Z,996.387
2017-01-13T16:59:44.873Z,996.362
2017-01-13T17:02:55.575Z,996.381
2017-01-13T17:05:59.444Z,996.391
2017-01-13T17:09:03.171Z,996.420
2017-01-13T17:12:08.014Z,996.388
2017-01-13T17:15:11.806Z,996.406
2017-01-13T17:18:16.627Z,996.469
2017-01-13T17:21:20.091Z,996.496
2017-01-13T17:24:24.661Z,996.555
2017-01-13T17:27:28.680Z,996.569
2017-01-13T17:30:32.513Z,996.539
2017-01-13T17:36:35.501Z,996.608
2017-01-13T17:39:46.085Z,996.634
2017-01-13T17:42:49.509Z,996.612
2017-01-13T17:45:53.814Z,996.667
2017-01-13T17:48:57.861Z,996.665
2017-01-13T17:51:55.804Z,996.771
2017-01-13T17:55:06.567Z,996.762
2017-01-13T17:58:10.544Z,996.793
2017-01-13T18:01:08.775Z,996.839
2017-01-13T18:04:19.492Z,996.824
2017-01-13T18:07:23.639Z,996.853
2017-01-13T18:10:22.344Z,996.869
2017-01-13T18:13:27.145Z,996.898
2017-01-13T18:16:31.681Z,996.886
2017-01-13T18:19:36.362Z,996.872
2017-01-13T18:22:40.808Z,996.853
2017-01-13T18:28:56.479Z,996.862
2017-01-13T18:32:00.278Z,996.942
2017-01-13T18:34:58.859Z,996.889
2017-01-13T18:38:09.288Z,996.909
2017-01-13T18:41:14.324Z,996.931
2017-01-13T18:44:18.293Z,996.991
2017-01-13T18:47:22.430Z,996.991
2017-01-13T18:50:20.346Z,997.025
2017-01-13T18:53:25.136Z,997.024
2017-01-13T18:56:28.837Z,997.077
2017-01-13T19:05:38.562Z,997.030
2017-01-13T19:08:45.594Z,997.067
2017-01-13T19:17:48.804Z,997.006
2017-01-13T19:20:43.938Z,997.034
2017-01-13T19:23:54.669Z,997.067
2017-01-13T19:26:58.873Z,997.112
2017-01-13T19:33:08.251Z,997.160
2017-01-13T19:36:07.185Z,997.175
2017-01-13T19:39:06.751Z,997.200
2017-01-13T19:42:23.038Z,997.192
2017-01-13T19:45:22.125Z,997.211
2017-01-13T19:48:27.095Z,997.219
2017-01-13T19:51:37.988Z,997.218
2017-01-13T19:54:41.901Z,997.203
2017-01-13T20:00:51.123Z,997.258
2017-01-13T20:03:55.185Z,997.219
2017-01-13T20:06:59.195Z,997.227
2017-01-13T20:10:03.485Z,997.232
2017-01-13T20:13:08.434Z,997.235
2017-01-13T20:16:06.399Z,997.266
2017-01-13T20:19:16.911Z,997.292
2017-01-13T20:22:20.779Z,997.296
2017-01-13T20:25:25.528Z,997.304
2017-01-13T20:28:29.280Z,997.388
2017-01-13T20:31:34.122Z,997.406
2017-01-13T20:34:38.912Z,997.422
2017-01-13T20:37:36.870Z,997.503
2017-01-13T20:40:47.773Z,997.547
2017-01-13T20:43:45.547Z,997.552
2017-01-13T20:46:56.174Z,997.527
2017-01-13T20:50:00.311Z,997.556
2017-01-13T20:52:59.327Z,997.577
2017-01-13T20:56:09.977Z,997.560
2017-01-13T20:59:14.798Z,997.538
2017-01-13T21:02:12.783Z,997.535
2017-01-13T21:05:22.774Z,997.491
2017-01-13T21:08:26.869Z,997.462
2017-01-13T21:11:30.609Z,997.447
2017-01-13T21:17:34.403Z,997.426
2017-01-13T21:26:53.822Z,997.531
2017-01-13T21:29:51.151Z,997.552
2017-01-13T21:33:01.707Z,997.591
2017-01-13T21:36:05.371Z,997.610
2017-01-13T21:42:08.862Z,997.591
2017-01-13T21:48:23.851Z,997.559
2017-01-13T21:51:27.612Z,997.550
2017-01-13T21:57:36.201Z,997.510
2017-01-13T22:03:46.279Z,997.474
2017-01-13T22:06:50.056Z,997.426
2017-01-13T22:09:53.957Z,997.394
2017-01-13T22:12:51.884Z,997.377
2017-01-13T22:16:02.644Z,997.413
2017-01-13T22:19:00.602Z,997.416
2017-01-13T22:22:05.522Z,997.410
2017-01-13T22:25:16.370Z,997.377
2017-01-13T22:28:14.400Z,997.351
2017-01-13T22:31:18.757Z,997.337
2017-01-13T22:34:23.271Z,997.337
2017-01-13T22:37:35.032Z,997.316
2017-01-13T22:40:33.149Z,997.317
2017-01-13T22:46:42.449Z,997.345
2017-01-13T22:49:53.224Z,997.313
2017-01-13T22:52:51.419Z,997.301
2017-01-13T22:55:56.019Z,997.277
2017-01-13T22:59:00.620Z,997.288
2017-01-13T23:02:05.276Z,997.318
2017-01-13T23:05:09.758Z,997.309
2017-01-13T23:08:20.567Z,997.277
2017-01-13T23:11:18.745Z,997.278
2017-01-13T23:14:23.339Z,997.284
2017-01-13T23:17:33.929Z,997.299
2017-01-13T23:20:31.725Z,997.323
2017-01-13T23:23:42.472Z,997.324
2017-01-13T23:26:40.540Z,997.322
2017-01-13T23:29:45.248Z,997.315
2017-01-13T23:32:49.927Z,997.319
2017-01-13T23:35:54.738Z,997.322
2017-01-13T23:39:05.422Z,997.345
2017-01-13T23:42:04.165Z,997.311
2017-01-13T23:45:08.542Z,997.329
2017-01-13T23:48:19.367Z,997.272
2017-01-13T23:51:17.441Z,997.290
2017-01-13T23:54:28.135Z,997.277
2017-01-13T23:57:33.084Z,997.255
